Terminal Aerodrome Forecast
Issued by NWS Charleston, WV

Current Version | Previous Version | Text Only | Print | Product List | Glossary Off
Versions: 1 2 3 4 5 6 7 8 9 10 11 12 13 14 15 16 17 18 19 20 21 22 23 24

000
FTUS41 KRLX 311733
TAFCRW
TAF
KCRW 311733Z 3118/0118 21010KT P6SM VCTS SCT045CB
      TEMPO 3118/3121 3SM TSRA BR BKN025CB
     FM010000 00000KT P6SM BKN250
     FM010300 00000KT P6SM BKN040
     FM010600 30004KT P6SM OVC025
     FM010800 VRB03KT 5SM BR OVC015
     FM011100 VRB03KT 2SM BR OVC015
     FM011400 34004KT 5SM BR BKN015
     FM011600 35005KT P6SM BKN018=

USA.gov is the U.S. government's official web portal to all federal, state and local government web resources and services.